createdAt,value
2018-03-28T00:00:32.470Z,49.23
2018-03-28T00:03:06.121Z,76.47
2018-03-28T00:05:39.885Z,63.27
2018-03-28T00:08:13.445Z,66.87
2018-03-28T00:10:47.228Z,113.97
2018-03-28T00:13:20.939Z,96.07
2018-03-28T00:15:54.676Z,108.10
2018-03-28T00:18:28.296Z,91.87
2018-03-28T00:21:01.917Z,92.43
2018-03-28T00:23:35.756Z,94.33
2018-03-28T00:26:09.352Z,75.97
2018-03-28T00:28:43.007Z,98.07
2018-03-28T00:31:16.567Z,94.47
2018-03-28T00:33:50.242Z,104.47
2018-03-28T00:36:23.879Z,88.17
2018-03-28T00:38:57.492Z,114.93
2018-03-28T00:41:31.123Z,113.00
2018-03-28T00:44:04.840Z,111.30
2018-03-28T00:46:38.527Z,108.53
2018-03-28T00:49:12.222Z,93.93
2018-03-28T00:51:45.960Z,114.60
2018-03-28T00:54:19.535Z,121.70
2018-03-28T00:56:53.106Z,128.00
2018-03-28T00:59:26.726Z,113.23
2018-03-28T01:02:00.340Z,112.97
2018-03-28T01:04:33.973Z,108.50
2018-03-28T01:07:07.539Z,115.37
2018-03-28T01:09:41.266Z,84.87
2018-03-28T01:12:14.916Z,102.47
2018-03-28T01:14:48.589Z,119.90
2018-03-28T01:17:22.205Z,118.27
2018-03-28T01:19:55.898Z,121.03
2018-03-28T01:22:29.664Z,102.70
2018-03-28T01:25:03.426Z,111.53
2018-03-28T01:27:37.068Z,107.77
2018-03-28T01:30:10.870Z,116.13
2018-03-28T01:32:44.547Z,116.10
2018-03-28T01:35:18.130Z,118.57
2018-03-28T01:37:51.850Z,124.50
2018-03-28T01:40:25.678Z,93.20
2018-03-28T01:42:59.409Z,95.63
2018-03-28T01:45:33.394Z,111.63
2018-03-28T01:48:07.307Z,74.03
2018-03-28T01:50:41.059Z,98.27
2018-03-28T01:53:14.741Z,104.23
2018-03-28T01:55:48.486Z,95.50
2018-03-28T01:58:22.169Z,99.37
2018-03-28T02:00:55.960Z,77.43
2018-03-28T02:03:29.539Z,65.97
2018-03-28T02:06:03.147Z,74.17
2018-03-28T02:08:36.722Z,83.97
2018-03-28T02:11:10.426Z,80.63
2018-03-28T02:13:44.170Z,82.43
2018-03-28T02:16:17.867Z,69.03
2018-03-28T02:18:51.496Z,73.20
2018-03-28T02:21:25.127Z,71.30
2018-03-28T02:23:58.749Z,88.60
2018-03-28T02:26:32.487Z,80.33
2018-03-28T02:29:06.186Z,78.27
2018-03-28T02:31:39.845Z,75.57
2018-03-28T02:34:13.487Z,46.20
2018-03-28T02:36:47.284Z,48.03
2018-03-28T02:39:20.919Z,55.97
2018-03-28T02:41:54.574Z,42.50
2018-03-28T02:44:28.316Z,47.07
2018-03-28T02:47:02.189Z,51.50
2018-03-28T02:49:35.798Z,54.93
2018-03-28T02:52:09.587Z,68.43
2018-03-28T02:54:43.354Z,67.67
2018-03-28T02:57:17.243Z,89.00
2018-03-28T02:59:51.067Z,72.40
2018-03-28T03:02:24.667Z,70.60
2018-03-28T03:04:58.170Z,74.20
2018-03-28T03:07:31.873Z,69.43
2018-03-28T03:10:05.698Z,67.33
2018-03-28T03:12:39.350Z,62.70
2018-03-28T03:15:12.936Z,39.67
2018-03-28T03:17:46.750Z,49.33
2018-03-28T03:20:20.345Z,47.50
2018-03-28T03:22:54.048Z,43.07
2018-03-28T03:25:27.637Z,37.07
2018-03-28T03:28:01.274Z,35.33
2018-03-28T03:30:34.840Z,39.50
2018-03-28T03:33:08.528Z,34.07
2018-03-28T03:35:42.114Z,31.93
2018-03-28T03:38:15.919Z,35.83
2018-03-28T03:40:49.501Z,35.33
2018-03-28T03:43:23.565Z,34.77
2018-03-28T03:45:57.286Z,36.73
2018-03-28T03:48:30.905Z,41.33
2018-03-28T03:51:04.520Z,46.37
2018-03-28T03:53:38.159Z,38.47
2018-03-28T03:56:12.160Z,40.73
2018-03-28T03:58:45.694Z,41.57
2018-03-28T04:01:19.357Z,45.70
2018-03-28T04:03:53.816Z,55.37
2018-03-28T04:06:27.545Z,59.03
2018-03-28T04:09:01.117Z,50.73
2018-03-28T04:11:34.686Z,55.37
2018-03-28T04:14:08.361Z,47.63
2018-03-28T04:16:42.111Z,43.47
2018-03-28T04:19:15.735Z,44.00
2018-03-28T04:21:49.446Z,47.60
2018-03-28T04:24:22.968Z,47.60
2018-03-28T04:26:56.604Z,50.17
2018-03-28T04:29:30.242Z,48.80
2018-03-28T04:32:03.902Z,47.53
2018-03-28T04:34:37.528Z,47.57
2018-03-28T04:37:11.107Z,48.90
2018-03-28T04:39:44.696Z,52.67
2018-03-28T04:42:18.371Z,42.97
2018-03-28T04:44:52.035Z,50.70
2018-03-28T04:47:25.717Z,47.27
2018-03-28T04:49:59.402Z,48.27
2018-03-28T04:52:33.057Z,45.93
2018-03-28T04:55:06.728Z,42.87
2018-03-28T04:57:40.582Z,40.93
2018-03-28T05:00:14.199Z,38.77
2018-03-28T05:02:47.814Z,39.37
2018-03-28T05:05:21.451Z,42.00
2018-03-28T05:07:55.220Z,43.57
2018-03-28T05:10:29.127Z,44.13
2018-03-28T05:13:02.840Z,43.53
2018-03-28T05:15:36.665Z,40.20
2018-03-28T05:18:10.317Z,40.63
2018-03-28T05:20:44.198Z,42.67
2018-03-28T05:23:17.902Z,40.67
2018-03-28T05:25:51.657Z,44.77
2018-03-28T05:28:25.206Z,41.43
2018-03-28T05:30:58.775Z,37.03
2018-03-28T05:33:32.366Z,37.27
2018-03-28T05:36:05.958Z,33.30
2018-03-28T05:38:39.610Z,32.27
2018-03-28T05:41:13.368Z,32.63
2018-03-28T05:43:46.914Z,32.23
2018-03-28T05:46:20.705Z,33.83
2018-03-28T05:48:54.485Z,36.50
2018-03-28T05:51:28.026Z,34.27
2018-03-28T05:54:01.815Z,33.97
2018-03-28T05:56:35.367Z,38.00
2018-03-28T05:59:09.040Z,32.53
2018-03-28T06:01:42.902Z,45.97
2018-03-28T06:04:16.501Z,42.33
2018-03-28T06:06:50.159Z,46.53
2018-03-28T06:09:23.642Z,45.60
2018-03-28T06:11:57.210Z,51.20
2018-03-28T06:14:30.752Z,49.27
2018-03-28T06:17:04.550Z,35.03
2018-03-28T06:19:38.234Z,35.00
2018-03-28T06:22:11.750Z,39.53
2018-03-28T06:24:45.507Z,40.43
2018-03-28T06:27:19.162Z,46.77
2018-03-28T06:29:52.843Z,35.30
2018-03-28T06:32:26.466Z,96.40
2018-03-28T06:35:00.040Z,44.17
2018-03-28T06:37:33.710Z,53.85
2018-03-28T06:40:07.410Z,49.83
2018-03-28T06:42:41.046Z,41.50
2018-03-28T06:45:14.609Z,39.90
2018-03-28T06:47:48.114Z,51.77
2018-03-28T06:50:22.100Z,54.97
2018-03-28T06:52:55.622Z,44.87
2018-03-28T06:55:29.174Z,52.40
2018-03-28T06:58:02.869Z,45.03
2018-03-28T07:00:36.463Z,46.10
2018-03-28T07:03:10.081Z,44.80
2018-03-28T07:05:43.594Z,42.53
2018-03-28T07:08:17.229Z,42.77
2018-03-28T07:10:50.789Z,36.90
2018-03-28T07:13:24.321Z,38.27
2018-03-28T07:15:57.870Z,40.80
2018-03-28T07:18:31.433Z,43.93
2018-03-28T07:21:04.989Z,38.83
2018-03-28T07:23:38.581Z,35.63
2018-03-28T07:26:12.246Z,38.27
2018-03-28T07:28:45.786Z,34.90
2018-03-28T07:31:19.414Z,33.63
2018-03-28T07:33:53.025Z,34.03
2018-03-28T07:36:26.716Z,31.93
2018-03-28T07:39:00.294Z,33.97
2018-03-28T07:41:33.842Z,298.47
2018-03-28T07:44:07.409Z,41.57
2018-03-28T07:46:40.950Z,35.70
2018-03-28T07:49:14.627Z,37.17
2018-03-28T07:51:48.295Z,37.90
2018-03-28T07:54:21.947Z,35.07
2018-03-28T07:56:55.574Z,38.13
2018-03-28T07:59:29.376Z,185.93
2018-03-28T08:02:03.089Z,34.83
2018-03-28T08:04:36.630Z,43.57
2018-03-28T08:07:10.323Z,68.53
2018-03-28T08:09:43.950Z,37.23
2018-03-28T08:12:17.744Z,30.97
2018-03-28T08:14:51.552Z,30.43
2018-03-28T08:17:25.081Z,35.83
2018-03-28T08:19:58.739Z,34.53
2018-03-28T08:22:32.576Z,33.30
2018-03-28T08:25:06.438Z,38.53
2018-03-28T08:27:40.195Z,39.50
2018-03-28T08:30:13.878Z,36.90
2018-03-28T08:32:47.725Z,33.20
2018-03-28T08:35:21.314Z,31.33
2018-03-28T08:37:54.964Z,32.27
2018-03-28T08:40:28.705Z,33.53
2018-03-28T08:43:02.389Z,33.87
2018-03-28T08:45:36.181Z,36.73
2018-03-28T08:48:09.903Z,35.60
2018-03-28T08:50:43.672Z,38.83
2018-03-28T08:53:17.319Z,38.03
2018-03-28T08:55:51.085Z,38.37
2018-03-28T08:58:24.884Z,40.30
2018-03-28T09:00:58.607Z,40.20
2018-03-28T09:03:32.427Z,38.93
2018-03-28T09:06:06.071Z,38.13
2018-03-28T09:08:39.758Z,40.37
2018-03-28T09:11:13.449Z,39.60
2018-03-28T09:13:47.066Z,36.43
2018-03-28T09:16:20.671Z,37.13
2018-03-28T09:18:54.343Z,40.50
2018-03-28T09:21:27.942Z,36.87
2018-03-28T09:24:01.602Z,34.77
2018-03-28T09:26:35.422Z,31.73
2018-03-28T09:29:09.182Z,30.83
2018-03-28T09:31:42.853Z,31.93
2018-03-28T09:34:16.391Z,31.77
2018-03-28T09:36:53.750Z,34.10
2018-03-28T09:39:27.394Z,32.23
2018-03-28T09:42:01.072Z,34.43
2018-03-28T09:44:34.666Z,32.33
2018-03-28T09:47:08.349Z,34.97
2018-03-28T09:49:42.138Z,33.07
2018-03-28T09:52:15.768Z,34.17
2018-03-28T09:54:49.471Z,32.10
2018-03-28T09:57:23.107Z,53.00
2018-03-28T09:59:56.630Z,47.90
2018-03-28T10:02:31.270Z,34.33
2018-03-28T10:05:10.869Z,47.23
2018-03-28T10:07:44.611Z,45.03
2018-03-28T10:10:18.302Z,40.13
2018-03-28T10:12:52.010Z,63.27
2018-03-28T10:15:25.658Z,50.90
2018-03-28T10:17:59.263Z,42.47
2018-03-28T10:20:32.952Z,116.13
2018-03-28T10:23:06.577Z,37.73
2018-03-28T10:25:40.300Z,42.80
2018-03-28T10:28:13.863Z,73.83
2018-03-28T10:30:47.478Z,35.80
2018-03-28T10:33:21.556Z,35.87
2018-03-28T10:35:55.103Z,39.90
2018-03-28T10:38:28.730Z,38.97
2018-03-28T10:41:02.357Z,32.60
2018-03-28T10:43:36.081Z,34.93
2018-03-28T10:46:09.929Z,33.80
2018-03-28T10:48:43.764Z,32.40
2018-03-28T10:51:17.548Z,34.43
2018-03-28T10:53:51.110Z,32.03
2018-03-28T10:56:24.775Z,32.33
2018-03-28T10:58:58.480Z,32.03
2018-03-28T11:01:32.094Z,32.97
2018-03-28T11:04:05.818Z,32.53
2018-03-28T11:06:39.430Z,32.90
2018-03-28T11:09:13.145Z,32.17
2018-03-28T11:11:46.935Z,29.90
2018-03-28T11:14:20.487Z,32.40
2018-03-28T11:16:54.106Z,31.80
2018-03-28T11:19:27.807Z,29.37
2018-03-28T11:22:01.389Z,28.00
2018-03-28T11:24:35.060Z,24.47
2018-03-28T11:27:08.807Z,22.23
2018-03-28T11:29:42.487Z,19.97
2018-03-28T11:32:16.096Z,20.13
2018-03-28T11:34:49.993Z,21.60
2018-03-28T11:37:23.677Z,21.37
2018-03-28T11:39:57.352Z,19.97
2018-03-28T11:42:30.939Z,22.27
2018-03-28T11:45:04.574Z,20.93
2018-03-28T11:47:38.188Z,19.37
2018-03-28T11:50:11.960Z,20.07
2018-03-28T11:52:45.588Z,20.13
2018-03-28T11:55:19.299Z,20.00
2018-03-28T11:57:53.152Z,22.13
2018-03-28T12:00:26.798Z,22.13
2018-03-28T12:03:00.441Z,21.53
2018-03-28T12:05:34.070Z,20.90
2018-03-28T12:08:07.753Z,20.87
2018-03-28T12:10:41.533Z,21.10
2018-03-28T12:13:15.259Z,20.33
2018-03-28T12:15:48.822Z,18.37
2018-03-28T12:18:22.382Z,19.00
2018-03-28T12:20:56.032Z,19.60
2018-03-28T12:23:29.798Z,19.63
2018-03-28T12:26:03.476Z,19.77
2018-03-28T12:28:37.078Z,20.37
2018-03-28T12:31:10.953Z,19.30
2018-03-28T12:33:44.523Z,20.10
2018-03-28T12:36:18.383Z,20.20
2018-03-28T12:38:51.913Z,18.93
2018-03-28T12:41:25.486Z,17.93
2018-03-28T12:43:59.103Z,18.83
2018-03-28T12:46:32.827Z,17.70
2018-03-28T12:49:06.453Z,14.43
2018-03-28T12:51:40.037Z,12.80
2018-03-28T12:54:13.617Z,11.97
2018-03-28T12:56:47.403Z,12.27
2018-03-28T12:59:21.019Z,14.17
2018-03-28T13:01:54.861Z,13.43
2018-03-28T13:04:28.481Z,11.63
2018-03-28T13:07:02.157Z,13.23
2018-03-28T13:09:35.838Z,12.30
2018-03-28T13:12:09.522Z,13.50
2018-03-28T13:14:43.105Z,14.47
2018-03-28T13:17:16.766Z,14.40
2018-03-28T13:19:50.371Z,10.63
2018-03-28T13:22:24.072Z,13.03
2018-03-28T13:24:57.590Z,12.23
2018-03-28T13:27:31.181Z,12.87
2018-03-28T13:30:04.700Z,14.07
2018-03-28T13:32:38.298Z,12.97
2018-03-28T13:35:11.794Z,12.63
2018-03-28T13:37:45.416Z,12.90
2018-03-28T13:40:19.100Z,12.60
2018-03-28T13:42:52.749Z,12.07
2018-03-28T13:45:26.301Z,12.77
2018-03-28T13:47:59.918Z,10.63
2018-03-28T13:50:33.433Z,9.20
2018-03-28T13:53:06.960Z,9.33
2018-03-28T13:55:40.516Z,9.90
2018-03-28T13:58:14.184Z,7.97
2018-03-28T14:00:47.696Z,9.20
2018-03-28T14:03:21.293Z,7.50
2018-03-28T14:05:54.970Z,8.17
2018-03-28T14:08:28.541Z,9.17
2018-03-28T14:11:02.060Z,8.47
2018-03-28T14:13:35.816Z,8.47
2018-03-28T14:16:32.930Z,8.80
2018-03-28T14:19:06.758Z,9.17
2018-03-28T14:21:40.338Z,9.03
2018-03-28T14:24:13.921Z,8.90
2018-03-28T14:26:47.438Z,8.17
2018-03-28T14:29:20.986Z,8.67
2018-03-28T14:31:54.598Z,8.77
2018-03-28T14:34:28.423Z,9.27
2018-03-28T14:37:02.240Z,8.10
2018-03-28T14:42:15.893Z,9.23
2018-03-28T14:44:49.776Z,8.70
2018-03-28T14:47:23.612Z,9.17
2018-03-28T14:49:57.511Z,9.33
2018-03-28T14:52:31.306Z,8.43
2018-03-28T14:55:05.074Z,9.50
2018-03-28T14:57:38.843Z,11.10
2018-03-28T15:00:12.695Z,10.10
2018-03-28T15:02:46.497Z,13.07
2018-03-28T15:05:20.424Z,13.93
2018-03-28T15:07:54.280Z,11.43
2018-03-28T15:10:28.104Z,11.83
2018-03-28T15:13:01.976Z,12.03
2018-03-28T15:15:35.683Z,12.03
2018-03-28T15:18:09.532Z,10.67
2018-03-28T15:20:43.336Z,11.63
2018-03-28T15:23:17.192Z,11.07
2018-03-28T15:25:51.133Z,11.13
2018-03-28T15:28:25.000Z,12.03
2018-03-28T15:30:59.581Z,11.17
2018-03-28T15:33:33.464Z,10.23
2018-03-28T15:36:07.452Z,11.97
2018-03-28T15:38:41.529Z,9.13
2018-03-28T15:41:15.444Z,11.40
2018-03-28T15:43:49.288Z,11.37
2018-03-28T15:46:23.253Z,11.27
2018-03-28T15:48:57.050Z,11.23
2018-03-28T15:51:30.736Z,11.43
2018-03-28T15:54:04.509Z,11.23
2018-03-28T15:56:38.300Z,10.80
2018-03-28T15:59:12.116Z,10.50
2018-03-28T16:01:45.748Z,10.90
2018-03-28T16:04:19.536Z,11.97
2018-03-28T16:06:53.457Z,10.97
2018-03-28T16:09:27.242Z,9.80
2018-03-28T16:12:01.129Z,13.47
2018-03-28T16:14:34.924Z,10.27
2018-03-28T16:17:08.713Z,10.17
2018-03-28T16:19:42.544Z,9.20
2018-03-28T16:22:16.376Z,9.80
2018-03-28T16:24:50.217Z,8.40
2018-03-28T16:27:24.056Z,11.10
2018-03-28T16:29:58.030Z,10.23
2018-03-28T16:32:31.870Z,11.27
2018-03-28T16:35:05.733Z,9.40
2018-03-28T16:37:39.592Z,8.90
2018-03-28T16:40:13.361Z,9.63
2018-03-28T16:42:47.301Z,8.07
2018-03-28T16:45:21.055Z,8.60
2018-03-28T16:47:54.887Z,8.80
2018-03-28T16:50:28.761Z,8.87
2018-03-28T16:53:05.925Z,7.10
2018-03-28T16:55:39.587Z,8.57
2018-03-28T16:58:13.467Z,7.87
2018-03-28T17:00:47.270Z,6.97
2018-03-28T17:03:21.109Z,9.43
2018-03-28T17:05:54.995Z,8.17
2018-03-28T17:08:28.947Z,8.87
2018-03-28T17:11:02.788Z,12.23
2018-03-28T17:13:36.748Z,7.37
2018-03-28T17:16:10.510Z,8.17
2018-03-28T17:18:44.318Z,6.37
2018-03-28T17:21:18.169Z,7.90
2018-03-28T17:23:52.058Z,7.40
2018-03-28T17:26:25.911Z,10.20
2018-03-28T17:28:59.824Z,8.63
2018-03-28T17:31:33.706Z,8.17
2018-03-28T17:34:07.527Z,8.07
2018-03-28T17:36:41.394Z,9.70
2018-03-28T17:39:15.166Z,8.10
2018-03-28T17:41:49.108Z,8.87
2018-03-28T17:44:22.807Z,8.30
2018-03-28T17:46:56.662Z,8.43
2018-03-28T17:49:30.452Z,14.77
2018-03-28T17:52:04.429Z,8.63
2018-03-28T17:54:38.282Z,8.30
2018-03-28T17:57:12.222Z,8.30
2018-03-28T17:59:46.049Z,8.80
2018-03-28T18:02:19.855Z,7.57
2018-03-28T18:04:53.723Z,7.40
2018-03-28T18:07:27.530Z,7.67
2018-03-28T18:10:01.436Z,7.63
2018-03-28T18:12:35.302Z,9.27
2018-03-28T18:15:09.151Z,7.10
2018-03-28T18:17:42.883Z,7.43
2018-03-28T18:20:16.770Z,7.87
2018-03-28T18:22:50.549Z,8.37
2018-03-28T18:25:24.220Z,8.50
2018-03-28T18:27:58.063Z,9.67
2018-03-28T18:30:31.907Z,9.50
2018-03-28T18:33:05.731Z,10.03
2018-03-28T18:35:39.563Z,9.83
2018-03-28T18:38:13.453Z,10.90
2018-03-28T18:40:47.191Z,11.13
2018-03-28T18:43:21.089Z,10.90
2018-03-28T18:45:55.127Z,13.00
2018-03-28T18:48:29.088Z,12.50
2018-03-28T18:51:02.826Z,11.77
2018-03-28T18:53:37.182Z,13.13
2018-03-28T18:56:11.101Z,13.70
2018-03-28T18:58:45.189Z,12.13
2018-03-28T19:01:18.888Z,12.07
2018-03-28T19:03:52.834Z,11.87
2018-03-28T19:06:26.798Z,10.77
2018-03-28T19:09:00.400Z,7.80
2018-03-28T19:11:35.336Z,7.47
2018-03-28T19:14:09.187Z,6.50
2018-03-28T19:16:43.078Z,6.37
2018-03-28T19:19:19.101Z,6.87
2018-03-28T19:21:53.003Z,7.23
2018-03-28T19:24:26.859Z,8.27
2018-03-28T19:27:00.668Z,8.53
2018-03-28T19:29:34.457Z,9.87
2018-03-28T19:32:08.335Z,11.57
2018-03-28T19:34:42.211Z,12.60
2018-03-28T19:37:16.993Z,13.30
2018-03-28T19:39:51.370Z,14.00
2018-03-28T19:42:25.781Z,11.90
2018-03-28T19:45:02.890Z,13.40
2018-03-28T19:47:36.538Z,13.37
2018-03-28T19:50:10.398Z,13.50
2018-03-28T19:52:44.292Z,14.23
2018-03-28T19:55:18.171Z,15.17
2018-03-28T19:57:52.514Z,15.33
2018-03-28T20:00:26.352Z,16.00
2018-03-28T20:03:00.948Z,17.13
2018-03-28T20:05:35.812Z,15.73
2018-03-28T20:08:09.592Z,20.27
2018-03-28T20:10:48.182Z,19.17
2018-03-28T20:13:22.805Z,19.60
2018-03-28T20:15:56.541Z,21.40
2018-03-28T20:18:30.700Z,21.40
2018-03-28T20:21:04.543Z,20.50
2018-03-28T20:23:38.553Z,22.27
2018-03-28T20:26:13.299Z,21.77
2018-03-28T20:28:47.830Z,22.67
2018-03-28T20:31:22.366Z,20.57
2018-03-28T20:33:57.869Z,20.03
2018-03-28T20:36:31.583Z,20.93
2018-03-28T20:39:05.522Z,21.10
2018-03-28T20:41:39.663Z,18.10
2018-03-28T20:44:13.522Z,18.57
2018-03-28T20:46:47.430Z,17.47
2018-03-28T20:49:21.085Z,17.67
2018-03-28T20:51:56.144Z,15.40
2018-03-28T20:54:30.572Z,17.90
2018-03-28T20:57:04.406Z,18.27
2018-03-28T20:59:38.211Z,18.37
2018-03-28T21:02:12.068Z,18.10
2018-03-28T21:04:45.972Z,17.97
2018-03-28T21:07:19.770Z,18.30
2018-03-28T21:09:53.689Z,20.23
2018-03-28T21:12:27.576Z,21.67
2018-03-28T21:15:01.258Z,22.77
2018-03-28T21:17:34.909Z,22.73
2018-03-28T21:20:08.788Z,21.67
2018-03-28T21:22:42.700Z,23.30
2018-03-28T21:25:16.570Z,21.43
2018-03-28T21:27:50.273Z,22.63
2018-03-28T21:30:24.145Z,18.83
2018-03-28T21:32:58.042Z,18.60
2018-03-28T21:35:31.976Z,17.53
2018-03-28T21:38:05.774Z,14.20
2018-03-28T21:40:39.828Z,13.93
2018-03-28T21:43:13.737Z,14.07
2018-03-28T21:45:47.558Z,14.33
2018-03-28T21:48:21.432Z,12.20
2018-03-28T21:50:55.338Z,13.03
2018-03-28T21:53:29.209Z,12.53
2018-03-28T21:56:02.961Z,12.33
2018-03-28T21:58:36.801Z,12.33
2018-03-28T22:01:10.645Z,9.50
2018-03-28T22:03:44.460Z,9.43
2018-03-28T22:06:18.283Z,9.23
2018-03-28T22:08:52.075Z,9.20
2018-03-28T22:11:25.900Z,8.47
2018-03-28T22:13:59.932Z,9.13
2018-03-28T22:16:33.532Z,8.60
2018-03-28T22:19:07.473Z,8.20
2018-03-28T22:21:41.495Z,9.57
2018-03-28T22:24:15.356Z,7.77
2018-03-28T22:26:49.218Z,8.27
2018-03-28T22:29:22.929Z,8.20
2018-03-28T22:31:56.772Z,8.33
2018-03-28T22:34:30.731Z,8.37
2018-03-28T22:37:04.554Z,8.17
2018-03-28T22:39:38.378Z,7.97
2018-03-28T22:42:12.267Z,7.90
2018-03-28T22:44:46.039Z,7.57
2018-03-28T22:47:19.941Z,7.00
2018-03-28T22:49:53.837Z,6.43
2018-03-28T22:52:27.601Z,6.23
2018-03-28T22:55:01.288Z,6.40
2018-03-28T22:57:35.200Z,6.30
2018-03-28T23:00:09.038Z,5.87
2018-03-28T23:02:42.915Z,5.47
2018-03-28T23:05:16.616Z,6.30
2018-03-28T23:07:50.629Z,6.43
2018-03-28T23:10:24.384Z,7.57
2018-03-28T23:12:58.217Z,7.80
2018-03-28T23:15:31.829Z,7.60
2018-03-28T23:18:05.637Z,7.87
2018-03-28T23:20:39.476Z,9.40
2018-03-28T23:23:13.370Z,11.03
2018-03-28T23:25:47.263Z,11.20
2018-03-28T23:28:21.084Z,11.30
2018-03-28T23:30:54.927Z,12.90
2018-03-28T23:33:28.818Z,13.00
2018-03-28T23:36:02.685Z,14.13
2018-03-28T23:38:36.625Z,14.03
2018-03-28T23:41:10.508Z,11.97
2018-03-28T23:43:44.439Z,12.60
2018-03-28T23:46:18.291Z,9.30
2018-03-28T23:48:52.120Z,7.77
2018-03-28T23:51:25.980Z,7.50
2018-03-28T23:53:59.731Z,7.70
2018-03-28T23:56:33.714Z,9.47
2018-03-28T23:59:07.545Z,9.03
